Time;durP1;ratioP1;P1;durP2;ratioP2;P2;SDS_P1;SDS_P2;PMS_P1;PMS_P2;Temp;Humidity;BMP_temperature;BMP_pressure;BME280_temperature;BME280_humidity;BME280_pressure;Samples;Min_cycle;Max_cycle;Signal;HPM_P1;HPM_P2
2021/08/20 00:02:33;;;;;;;10.20;6.63;;;;;;;19.77;57.78;99024.31;263345;1092;114994;-60
2021/08/20 00:07:38;;;;;;;11.28;6.53;;;;;;;19.74;57.96;99024.61;262320;1092;115501;-62
2021/08/20 00:12:43;;;;;;;12.83;6.13;;;;;;;19.78;58.10;99026.84;263256;1092;114750;-64
2021/08/20 00:17:46;;;;;;;9.80;6.73;;;;;;;19.81;57.92;99022.98;263184;1093;114647;-63
2021/08/20 00:22:51;;;;;;;10.70;6.97;;;;;;;19.82;57.94;99024.67;263194;1093;115703;-66
2021/08/20 00:27:55;;;;;;;11.23;7.00;;;;;;;19.82;57.53;99019.28;263184;1093;116501;-60
2021/08/20 00:32:59;;;;;;;13.55;7.78;;;;;;;19.80;58.01;99018.56;263306;1092;114784;-63
2021/08/20 00:38:03;;;;;;;11.07;7.00;;;;;;;19.78;57.85;99023.30;263461;1092;117792;-62
2021/08/20 00:43:07;;;;;;;11.95;7.38;;;;;;;19.74;58.16;99019.21;263323;1092;115532;-63
2021/08/20 00:48:11;;;;;;;13.63;7.03;;;;;;;19.70;58.02;99017.80;262747;1092;115862;-66
2021/08/20 00:53:14;;;;;;;9.70;6.93;;;;;;;19.69;58.29;99010.70;263221;1092;115367;-67
2021/08/20 00:58:18;;;;;;;13.00;7.15;;;;;;;19.70;58.41;99015.09;262953;1092;116008;-70
2021/08/20 01:03:22;;;;;;;11.43;6.40;;;;;;;19.68;58.04;99017.12;262014;1092;115074;-63
2021/08/20 01:08:29;;;;;;;11.40;6.43;;;;;;;19.65;58.37;99018.27;262696;1093;116160;-62
2021/08/20 01:13:36;;;;;;;9.40;5.97;;;;;;;19.66;58.15;99017.25;261368;1092;114941;-67
2021/08/20 01:18:42;;;;;;;133.80;115.33;;;;;;;19.69;58.38;99021.50;262497;1093;114963;-65
2021/08/20 01:23:50;;;;;;;50.23;36.03;;;;;;;19.73;58.54;99022.89;261099;1092;115803;-64
2021/08/20 01:28:55;;;;;;;10.10;6.37;;;;;;;19.76;58.29;99025.28;261348;1092;115218;-67
2021/08/20 01:33:59;;;;;;;20.93;12.83;;;;;;;19.73;58.58;99026.44;262018;1092;115105;-65
2021/08/20 01:39:08;;;;;;;15.63;11.40;;;;;;;20.02;59.38;99022.67;261473;1092;115338;-64
2021/08/20 01:44:12;;;;;;;11.28;6.58;;;;;;;20.25;59.00;99023.03;262296;1093;115220;-66
2021/08/20 01:49:32;;;;;;;77.90;60.23;;;;;;;20.25;58.64;99020.33;261803;1093;114965;-64
2021/08/20 01:54:47;;;;;;;9.37;6.97;;;;;;;20.23;58.35;99011.52;261609;1092;115385;-66
2021/08/20 02:00:05;;;;;;;11.87;6.73;;;;;;;20.03;57.94;99011.69;261387;1093;115422;-67
2021/08/20 02:05:24;;;;;;;13.60;6.13;;;;;;;19.87;58.15;99018.80;262187;1093;117622;-66
2021/08/20 02:15:01;;;;;;;10.58;5.20;;;;;;;19.66;58.75;99005.61;263403;1095;100991;-68
2021/08/20 02:20:06;;;;;;;8.83;6.03;;;;;;;19.62;59.14;99008.58;262738;1095;114470;-67
2021/08/20 02:25:10;;;;;;;11.80;6.40;;;;;;;19.61;59.10;99001.50;262443;1095;114200;-68
2021/08/20 02:30:15;;;;;;;10.93;6.20;;;;;;;19.64;59.13;99002.23;262670;1095;114959;-67
2021/08/20 02:35:24;;;;;;;10.90;6.25;;;;;;;19.62;59.16;99005.04;262584;1095;114657;-69
2021/08/20 02:40:28;;;;;;;11.75;6.75;;;;;;;19.59;59.18;99000.78;262526;1095;115083;-68
2021/08/20 02:45:32;;;;;;;;;;;;;;;19.59;59.26;99008.05;262798;1096;114822;-67
2021/08/20 02:50:39;;;;;;;11.87;6.83;;;;;;;19.54;59.23;99000.41;262600;1095;101605;-67
2021/08/20 02:55:43;;;;;;;11.08;6.85;;;;;;;19.52;59.40;99007.80;262682;1096;114569;-67
2021/08/20 03:00:47;;;;;;;14.15;7.18;;;;;;;19.49;59.72;99008.11;262425;1096;114842;-67
2021/08/20 03:05:51;;;;;;;;;;;;;;;19.52;59.62;99012.36;262674;1096;115217;-67
2021/08/20 03:10:56;;;;;;;13.30;7.50;;;;;;;19.53;59.63;99014.05;262758;1095;102444;-67
2021/08/20 03:16:00;;;;;;;13.13;7.95;;;;;;;19.53;59.86;99006.83;262951;1095;114754;-67
2021/08/20 03:21:04;;;;;;;11.07;8.03;;;;;;;19.51;59.99;99008.81;262460;1096;115913;-67
2021/08/20 03:26:14;;;;;;;12.07;7.57;;;;;;;19.51;59.84;99011.52;262537;1095;114731;-67
2021/08/20 03:31:27;;;;;;;13.15;8.23;;;;;;;19.45;59.96;99011.27;262712;1095;115682;-67
2021/08/20 03:36:33;;;;;;;13.13;7.43;;;;;;;19.41;60.08;99009.89;262756;1095;114759;-68
2021/08/20 03:41:50;;;;;;;14.93;8.13;;;;;;;19.34;60.22;99015.05;262466;1096;115214;-65
2021/08/20 03:46:55;;;;;;;10.67;6.93;;;;;;;19.30;60.04;99019.05;262850;1096;114454;-67
2021/08/20 03:51:59;;;;;;;14.37;7.43;;;;;;;19.31;60.11;99026.98;262716;1095;115634;-67
2021/08/20 03:57:07;;;;;;;13.83;7.88;;;;;;;19.32;60.35;99028.67;262509;1094;115047;-67
2021/08/20 04:02:11;;;;;;;14.75;8.00;;;;;;;19.32;60.43;99022.43;262474;1096;115132;-68
2021/08/20 04:07:19;;;;;;;14.70;7.77;;;;;;;19.33;60.60;99019.59;262535;1095;115474;-68
2021/08/20 04:12:37;;;;;;;16.10;8.20;;;;;;;19.31;60.57;99020.73;262642;1095;115077;-67
2021/08/20 04:18:03;;;;;;;18.20;7.87;;;;;;;19.31;60.65;99032.38;262683;1095;114767;-67
2021/08/20 04:23:07;;;;;;;15.48;8.53;;;;;;;19.29;60.57;99028.13;262412;1095;114758;-68
2021/08/20 04:28:13;;;;;;;15.17;8.20;;;;;;;19.27;60.67;99038.23;262680;1096;115023;-66
2021/08/20 04:33:28;;;;;;;15.83;7.80;;;;;;;19.23;60.87;99034.15;263217;1095;114881;-67
2021/08/20 04:38:50;;;;;;;15.40;7.83;;;;;;;19.26;60.79;99034.70;262744;1095;115168;-67
2021/08/20 04:44:18;;;;;;;15.90;7.73;;;;;;;19.33;60.75;99032.25;262467;1095;115291;-66
2021/08/20 04:49:46;;;;;;;14.38;7.48;;;;;;;19.37;61.13;99039.88;262617;1095;114955;-67
2021/08/20 04:55:10;;;;;;;19.63;8.33;;;;;;;19.39;61.39;99039.70;263087;1096;114803;-66
2021/08/20 05:00:13;;;;;;;16.73;8.45;;;;;;;19.38;61.33;99043.42;262799;1096;115414;-66
2021/08/20 05:05:17;;;;;;;13.55;8.13;;;;;;;19.36;61.30;99045.41;262739;1096;115024;-66
2021/08/20 05:10:21;;;;;;;14.23;8.07;;;;;;;19.31;61.29;99043.17;262946;1095;114948;-66
2021/08/20 05:15:27;;;;;;;13.80;7.85;;;;;;;19.29;61.46;99039.80;262918;1095;114888;-66
2021/08/20 05:20:31;;;;;;;18.90;8.27;;;;;;;19.33;61.41;99043.88;262537;1096;114775;-66
2021/08/20 05:25:36;;;;;;;14.08;7.75;;;;;;;19.35;61.69;99049.96;262769;1095;114760;-67
2021/08/20 05:30:42;;;;;;;15.90;8.20;;;;;;;19.36;61.75;99059.78;262633;1095;115421;-66
2021/08/20 05:35:47;;;;;;;13.43;7.70;;;;;;;19.38;62.14;99051.52;263039;1095;114374;-66
2021/08/20 05:40:50;;;;;;;15.00;8.60;;;;;;;19.36;61.82;99046.28;262918;1095;114691;-66
2021/08/20 05:45:54;;;;;;;14.53;8.43;;;;;;;19.37;61.83;99041.73;263062;1095;115240;-66
2021/08/20 05:50:58;;;;;;;26.45;8.68;;;;;;;19.39;62.35;99053.20;263042;1095;115061;-66
2021/08/20 05:56:01;;;;;;;20.30;7.13;;;;;;;19.39;62.04;99053.20;262912;1095;115235;-66
2021/08/20 06:01:05;;;;;;;14.18;6.70;;;;;;;19.45;61.92;99049.91;262747;1096;115590;-66
2021/08/20 06:06:14;;;;;;;22.15;7.40;;;;;;;19.56;62.30;99046.14;262637;1095;115218;-65
2021/08/20 06:11:18;;;;;;;12.90;7.37;;;;;;;19.67;61.93;99058.63;262867;1096;115287;-65
2021/08/20 06:16:21;;;;;;;17.98;7.80;;;;;;;19.72;62.03;99053.61;263058;1095;114844;-65
2021/08/20 06:21:25;;;;;;;11.80;6.83;;;;;;;19.77;62.03;99056.72;263085;1095;114810;-65
2021/08/20 06:26:28;;;;;;;11.93;6.58;;;;;;;19.79;61.64;99058.23;263025;1095;114936;-65
2021/08/20 06:31:37;;;;;;;13.90;6.23;;;;;;;19.81;61.50;99055.40;263004;1095;115348;-65
2021/08/20 06:36:42;;;;;;;10.47;6.50;;;;;;;19.82;61.61;99051.69;263109;1095;114373;-65
2021/08/20 06:41:45;;;;;;;9.93;5.83;;;;;;;19.85;61.54;99062.19;262660;1096;114527;-65
2021/08/20 06:46:49;;;;;;;8.38;5.00;;;;;;;19.92;61.52;99065.12;263026;1095;114616;-65
2021/08/20 06:51:52;;;;;;;14.60;5.27;;;;;;;19.98;61.46;99062.66;263109;1095;114970;-65
2021/08/20 06:56:56;;;;;;;12.58;5.78;;;;;;;20.06;61.37;99076.22;263033;1095;116340;-66
2021/08/20 07:01:59;;;;;;;11.30;5.20;;;;;;;20.15;61.25;99079.02;262945;1095;114765;-65
2021/08/20 07:07:04;;;;;;;7.65;4.60;;;;;;;20.19;60.86;99070.44;262860;1095;114681;-66
2021/08/20 07:12:08;;;;;;;11.15;4.43;;;;;;;20.21;60.78;99081.95;262537;1096;114855;-65
2021/08/20 07:17:11;;;;;;;7.18;4.25;;;;;;;20.22;60.40;99086.34;262813;1095;114789;-64
2021/08/20 07:22:15;;;;;;;9.28;4.58;;;;;;;20.24;60.46;99094.28;262727;1095;114958;-65
2021/08/20 07:27:19;;;;;;;14.27;4.50;;;;;;;20.28;60.38;99095.69;263183;1094;114279;-65
2021/08/20 07:32:23;;;;;;;11.40;5.47;;;;;;;20.29;60.26;99094.68;262692;1096;114946;-64
2021/08/20 07:37:26;;;;;;;9.93;4.37;;;;;;;20.31;60.02;99103.46;262922;1096;115367;-65
2021/08/20 07:42:31;;;;;;;10.50;4.10;;;;;;;20.33;60.08;99094.20;262999;1095;116937;-65
2021/08/20 07:47:46;;;;;;;6.15;4.10;;;;;;;20.41;59.97;99092.56;263121;1096;115045;-65
2021/08/20 07:52:50;;;;;;;8.43;4.17;;;;;;;20.50;59.65;99100.63;262755;1096;114560;-66
2021/08/20 07:57:55;;;;;;;8.68;4.50;;;;;;;20.63;59.61;99102.08;263191;1095;114927;-65
2021/08/20 08:03:00;;;;;;;10.70;4.00;;;;;;;20.75;59.47;99098.97;262765;1095;115264;-66
2021/08/20 08:08:06;;;;;;;7.60;3.60;;;;;;;20.86;59.37;99102.41;262751;1096;114915;-65
2021/08/20 08:13:09;;;;;;;9.45;3.83;;;;;;;20.94;59.29;99111.41;263007;1095;114533;-65
2021/08/20 08:18:51;;;;;;;8.40;3.50;;;;;;;21.03;59.20;99103.86;230897;1216;635608;-64
2021/08/20 08:23:55;;;;;;;7.00;3.90;;;;;;;21.12;59.12;99098.44;233567;1204;137647;-63
2021/08/20 08:28:59;;;;;;;6.10;3.50;;;;;;;21.22;58.87;99101.05;233415;1204;137606;-61
2021/08/20 08:34:02;;;;;;;12.40;4.20;;;;;;;21.25;58.43;99099.33;233577;1204;137640;-62
2021/08/20 08:39:05;;;;;;;5.60;4.10;;;;;;;21.32;58.58;99100.23;233458;1201;138382;-63
2021/08/20 08:44:08;;;;;;;6.00;3.40;;;;;;;21.39;58.18;99104.38;233604;1204;137737;-62
2021/08/20 08:49:13;;;;;;;11.10;3.90;;;;;;;21.45;57.94;99111.51;233561;1204;137805;-64
2021/08/20 08:54:16;;;;;;;4.90;3.50;;;;;;;21.49;57.78;99110.91;233589;1204;137789;-64
2021/08/20 08:59:19;;;;;;;10.40;4.00;;;;;;;21.53;57.70;99110.35;233507;1205;140782;-63
2021/08/20 09:04:22;;;;;;;5.60;3.70;;;;;;;21.60;57.65;99116.45;233996;1201;138002;-61
2021/08/20 09:09:25;;;;;;;11.70;4.50;;;;;;;21.68;57.64;99116.34;234055;1201;138189;-62
2021/08/20 09:14:35;;;;;;;8.60;4.50;;;;;;;21.76;57.60;99114.60;233919;1201;139536;-64
2021/08/20 09:19:39;;;;;;;6.80;3.70;;;;;;;21.83;57.51;99109.65;233811;1201;137668;-63
2021/08/20 09:24:43;;;;;;;14.20;5.30;;;;;;;21.91;57.49;99105.33;233864;1201;137813;-63
2021/08/20 09:30:08;;;;;;;9.10;4.80;;;;;;;22.00;57.23;99099.89;234005;1201;138433;-63
2021/08/20 09:35:11;;;;;;;11.90;4.60;;;;;;;22.07;56.86;99092.82;234034;1201;138103;-63
2021/08/20 09:40:16;;;;;;;8.70;3.80;;;;;;;22.14;56.52;99090.60;233963;1201;137828;-64
2021/08/20 09:45:22;;;;;;;5.90;4.40;;;;;;;22.19;56.18;99083.38;233894;1201;137976;-63
2021/08/20 09:50:42;;;;;;;8.70;3.70;;;;;;;22.27;56.22;99077.99;233880;1201;137958;-64
2021/08/20 09:55:46;;;;;;;6.00;3.80;;;;;;;22.30;55.95;99079.41;233989;1201;137778;-66
2021/08/20 10:00:50;;;;;;;6.90;3.80;;;;;;;22.30;55.63;99080.67;233863;1201;138201;-67
2021/08/20 10:05:56;;;;;;;5.40;3.00;;;;;;;22.36;55.46;99069.48;233919;1201;139011;-64
2021/08/20 10:11:01;;;;;;;4.30;3.10;;;;;;;22.50;55.55;99062.91;233903;1201;138005;-66
2021/08/20 10:16:04;;;;;;;11.30;3.40;;;;;;;22.66;55.52;99055.84;234008;1201;138153;-67
2021/08/20 10:21:08;;;;;;;5.80;3.10;;;;;;;22.85;55.57;99054.64;233908;1201;137995;-65
2021/08/20 10:26:13;;;;;;;4.70;2.60;;;;;;;23.02;54.91;99048.55;233458;1201;138306;-65
2021/08/20 10:31:17;;;;;;;6.70;3.20;;;;;;;23.21;54.55;99048.09;233842;1201;138776;-65
2021/08/20 10:36:37;;;;;;;2.90;2.40;;;;;;;23.38;54.02;99043.05;233831;1200;138033;-67
2021/08/20 10:42:03;;;;;;;5.80;2.40;;;;;;;23.55;53.55;99040.30;234097;1199;137898;-66
2021/08/20 10:47:07;;;;;;;5.50;2.50;;;;;;;23.75;53.04;99044.00;233905;1198;138155;-64
2021/08/20 10:52:23;;;;;;;2.70;1.90;;;;;;;23.88;52.34;99041.22;234172;1198;138434;-65
2021/08/20 10:57:39;;;;;;;6.50;2.30;;;;;;;23.99;52.04;99035.95;234094;1198;137899;-64
2021/08/20 11:02:47;;;;;;;6.30;2.30;;;;;;;24.15;51.88;99035.48;234068;1196;138164;-67
2021/08/20 11:07:50;;;;;;;3.30;2.30;;;;;;;24.35;51.67;99029.51;234027;1199;138101;-66
2021/08/20 11:12:54;;;;;;;4.70;2.00;;;;;;;24.51;51.36;99024.73;234107;1198;137630;-62
2021/08/20 11:18:05;;;;;;;6.70;2.60;;;;;;;24.70;51.11;99023.57;234088;1199;138137;-65
2021/08/20 11:23:09;;;;;;;4.00;2.30;;;;;;;24.89;50.63;99016.05;234077;1199;137991;-66
2021/08/20 11:28:18;;;;;;;3.40;2.60;;;;;;;25.10;50.33;99014.73;234244;1199;138069;-67
2021/08/20 11:33:24;;;;;;;4.30;2.20;;;;;;;25.15;49.63;99012.13;233993;1199;138020;-67
2021/08/20 11:38:29;;;;;;;5.20;2.50;;;;;;;25.24;49.56;99008.98;233926;1199;138443;-65
2021/08/20 11:43:44;;;;;;;3.90;2.60;;;;;;;25.25;49.00;99013.27;234020;1199;138584;-65
2021/08/20 11:48:49;;;;;;;6.10;2.70;;;;;;;25.12;48.60;99017.98;234092;1199;138478;-68
2021/08/20 11:53:52;;;;;;;;;;;;;;;24.94;48.44;99015.29;234137;1198;137932;-70
2021/08/20 11:58:56;;;;;;;4.80;2.60;;;;;;;24.86;48.47;99012.08;234125;1199;125515;-67
2021/08/20 12:03:59;;;;;;;4.70;2.60;;;;;;;24.94;48.58;99007.76;234190;1196;137725;-67
2021/08/20 12:09:11;;;;;;;4.20;2.70;;;;;;;25.02;48.44;99008.11;234124;1198;138629;-67
2021/08/20 12:14:16;;;;;;;6.50;4.20;;;;;;;25.26;48.59;99001.72;234085;1199;138106;-64
2021/08/20 12:19:24;;;;;;;5.00;2.70;;;;;;;25.60;48.61;98999.84;234100;1199;138756;-67
2021/08/20 12:24:36;;;;;;;3.10;2.80;;;;;;;25.61;48.15;98995.74;234083;1199;138517;-68
2021/08/20 12:29:41;;;;;;;3.20;2.60;;;;;;;25.47;47.71;98994.91;234119;1198;138365;-68
2021/08/20 12:34:44;;;;;;;4.30;2.50;;;;;;;25.29;47.18;98998.81;234140;1198;138256;-64
2021/08/20 12:39:47;;;;;;;4.80;2.70;;;;;;;25.09;47.18;98995.31;234246;1199;137758;-63
2021/08/20 12:45:09;;;;;;;15.60;4.10;;;;;;;24.91;47.18;98998.16;234161;1199;137669;-62
2021/08/20 12:50:18;;;;;;;5.70;2.70;;;;;;;24.75;47.21;98997.93;234094;1198;138166;-64
2021/08/20 12:55:31;;;;;;;4.90;2.50;;;;;;;24.60;47.52;98997.13;234006;1198;138085;-64
2021/08/20 13:00:39;;;;;;;4.00;2.30;;;;;;;24.49;47.60;98998.98;233992;1199;138101;-62
2021/08/20 13:05:53;;;;;;;5.20;2.80;;;;;;;24.40;47.86;98998.96;233888;1201;137862;-63
2021/08/20 13:10:58;;;;;;;4.00;2.50;;;;;;;24.31;47.68;99000.73;233934;1199;138143;-62
2021/08/20 13:16:01;;;;;;;;;;;;;;;24.24;47.52;99001.17;234171;1198;137817;-63
2021/08/20 13:21:05;;;;;;;6.60;2.50;;;;;;;24.19;47.74;98998.39;234183;1199;124889;-61
2021/08/20 13:26:08;;;;;;;3.60;2.50;;;;;;;24.17;47.79;98995.97;234128;1198;138261;-62
2021/08/20 13:31:11;;;;;;;3.10;2.50;;;;;;;24.14;47.98;98995.14;233475;1200;138884;-62
2021/08/20 13:36:14;;;;;;;4.80;2.60;;;;;;;24.12;48.18;98994.75;234084;1199;137695;-62
2021/08/20 13:41:17;;;;;;;5.20;2.90;;;;;;;24.07;48.39;98998.86;234082;1199;138070;-62
2021/08/20 13:46:21;;;;;;;4.40;2.40;;;;;;;24.04;48.50;98999.65;234110;1199;138341;-62
2021/08/20 13:51:24;;;;;;;5.60;2.50;;;;;;;23.97;48.57;98991.77;234049;1196;139093;-63
2021/08/20 13:56:28;;;;;;;5.30;3.20;;;;;;;23.90;48.52;98993.42;233906;1199;138346;-62
2021/08/20 14:01:31;;;;;;;4.90;2.90;;;;;;;23.85;48.64;98993.92;234048;1199;138221;-62
2021/08/20 14:06:34;;;;;;;4.70;2.70;;;;;;;23.77;48.65;98988.05;234030;1199;137867;-62
2021/08/20 14:11:38;;;;;;;5.00;2.50;;;;;;;23.74;48.82;98991.00;234091;1199;138127;-61
2021/08/20 14:16:41;;;;;;;4.10;2.60;;;;;;;23.70;48.77;98993.30;233980;1199;139783;-62
2021/08/20 14:21:44;;;;;;;4.90;2.60;;;;;;;23.65;48.64;98994.82;234193;1200;139825;-61
2021/08/20 14:26:47;;;;;;;4.20;2.60;;;;;;;23.59;48.69;98994.45;234037;1199;140696;-61
2021/08/20 14:31:50;;;;;;;8.70;2.40;;;;;;;23.56;48.92;98995.03;234074;1198;138067;-62
2021/08/20 14:36:53;;;;;;;7.60;2.70;;;;;;;23.54;48.90;98995.95;234085;1198;137923;-62
2021/08/20 14:41:58;;;;;;;3.60;2.20;;;;;;;23.50;48.90;99001.11;234023;1199;137808;-63
2021/08/20 14:47:01;;;;;;;3.60;2.20;;;;;;;23.45;48.91;99000.35;234044;1199;137983;-62
2021/08/20 14:52:06;;;;;;;4.10;3.00;;;;;;;23.40;48.79;98999.10;234181;1199;137986;-62
2021/08/20 14:57:09;;;;;;;4.80;2.70;;;;;;;23.34;48.58;98996.80;234010;1199;138575;-62
2021/08/20 15:02:12;;;;;;;6.10;2.30;;;;;;;23.29;48.44;99000.09;233933;1200;137853;-62
2021/08/20 15:07:16;;;;;;;4.10;2.60;;;;;;;23.22;48.38;98997.42;234110;1199;138320;-62
2021/08/20 15:12:23;;;;;;;6.20;3.20;;;;;;;23.16;48.42;98997.52;234085;1199;138486;-63
2021/08/20 15:17:26;;;;;;;8.70;2.90;;;;;;;23.12;48.63;98999.14;234035;1199;138344;-64
2021/08/20 15:22:29;;;;;;;4.20;2.30;;;;;;;23.07;48.64;99001.80;234015;1199;137493;-65
2021/08/20 15:27:38;;;;;;;5.30;2.80;;;;;;;23.05;48.62;98996.65;234060;1199;138135;-64
2021/08/20 15:32:41;;;;;;;6.20;3.40;;;;;;;23.03;48.54;98994.36;233976;1199;138409;-67
2021/08/20 15:37:45;;;;;;;10.20;2.60;;;;;;;23.01;48.60;98990.09;234091;1199;138206;-64
2021/08/20 15:42:48;;;;;;;4.50;2.70;;;;;;;22.97;48.61;98991.94;234149;1199;138110;-64
2021/08/20 15:47:51;;;;;;;6.90;3.00;;;;;;;22.94;48.78;98991.61;233995;1199;138135;-63
2021/08/20 15:52:55;;;;;;;14.50;11.40;;;;;;;22.86;49.14;98996.46;233621;1199;138109;-64
2021/08/20 15:57:59;;;;;;;4.20;2.70;;;;;;;22.81;49.17;99000.10;234050;1200;138189;-64
2021/08/20 16:03:02;;;;;;;6.80;2.90;;;;;;;22.77;48.99;99001.23;233995;1199;138251;-65
2021/08/20 16:08:07;;;;;;;5.90;3.10;;;;;;;22.73;49.09;99002.60;233672;1199;138161;-64
2021/08/20 16:13:10;;;;;;;3.60;2.40;;;;;;;22.70;49.06;99010.78;233918;1199;141021;-65
2021/08/20 16:18:13;;;;;;;3.70;2.30;;;;;;;22.64;49.17;99010.62;234018;1199;137897;-64
2021/08/20 16:23:17;;;;;;;4.10;2.50;;;;;;;22.62;49.25;99008.43;233655;1199;137540;-64
2021/08/20 16:28:20;;;;;;;9.70;3.20;;;;;;;22.59;49.27;99000.80;234178;1200;137974;-64
2021/08/20 16:33:23;;;;;;;4.80;2.90;;;;;;;22.56;49.25;99009.66;234117;1199;137754;-64
2021/08/20 16:38:26;;;;;;;5.80;3.30;;;;;;;22.53;49.52;99008.38;234104;1199;138390;-62
2021/08/20 16:43:29;;;;;;;8.00;3.60;;;;;;;22.50;49.56;99013.82;234083;1199;138156;-62
2021/08/20 16:48:32;;;;;;;6.50;3.80;;;;;;;22.47;49.55;99016.39;234074;1199;138942;-63
2021/08/20 16:53:36;;;;;;;10.40;3.60;;;;;;;22.45;49.70;99012.90;234107;1198;138115;-64
2021/08/20 16:58:39;;;;;;;7.50;3.40;;;;;;;22.45;49.82;99017.17;233742;1199;139448;-62
2021/08/20 17:03:42;;;;;;;10.30;3.50;;;;;;;22.44;49.84;99015.98;234117;1199;138036;-62
2021/08/20 17:08:45;;;;;;;6.70;3.70;;;;;;;22.43;49.95;99011.45;234035;1199;138150;-63
2021/08/20 17:13:48;;;;;;;4.60;3.10;;;;;;;22.42;50.01;99013.48;234066;1199;138398;-65
2021/08/20 17:18:51;;;;;;;6.40;3.40;;;;;;;22.41;49.94;99013.30;234084;1198;139871;-66
2021/08/20 17:23:55;;;;;;;5.40;3.40;;;;;;;22.39;50.04;99012.37;234181;1198;138608;-64
2021/08/20 17:28:58;;;;;;;6.50;3.70;;;;;;;22.39;50.17;99017.29;234070;1199;137859;-62
2021/08/20 17:34:02;;;;;;;8.70;3.40;;;;;;;22.35;50.68;99014.52;234104;1198;138143;-65
2021/08/20 17:39:05;;;;;;;7.00;4.10;;;;;;;22.30;50.72;99012.51;233998;1199;138186;-67
2021/08/20 17:44:08;;;;;;;8.80;3.60;;;;;;;22.28;50.62;99011.70;234038;1199;138401;-65
2021/08/20 17:49:11;;;;;;;12.90;4.30;;;;;;;22.26;50.74;99011.49;233997;1200;138579;-65
2021/08/20 17:54:15;;;;;;;9.90;4.30;;;;;;;22.26;50.84;99015.73;234011;1199;139144;-65
2021/08/20 17:59:18;;;;;;;6.90;3.50;;;;;;;22.24;51.08;99022.61;234031;1199;138419;-66
2021/08/20 18:04:21;;;;;;;14.40;4.60;;;;;;;22.19;51.41;99026.89;234119;1199;138282;-65
2021/08/20 18:09:24;;;;;;;6.10;3.70;;;;;;;22.16;51.43;99033.02;233989;1199;138195;-65
2021/08/20 18:14:28;;;;;;;7.50;4.00;;;;;;;22.15;51.41;99037.88;234115;1198;138027;-66
2021/08/20 18:19:32;;;;;;;9.00;4.00;;;;;;;22.15;51.58;99045.65;234094;1199;139951;-66
2021/08/20 18:24:35;;;;;;;9.50;3.80;;;;;;;22.14;51.86;99051.64;234049;1199;138880;-67
2021/08/20 18:29:38;;;;;;;8.60;4.30;;;;;;;22.11;52.01;99050.37;233959;1199;138273;-63
2021/08/20 18:34:41;;;;;;;10.20;4.30;;;;;;;22.07;52.25;99055.04;234006;1199;138744;-65
2021/08/20 18:39:44;;;;;;;9.10;4.30;;;;;;;22.03;52.59;99057.65;234229;1199;138763;-69
2021/08/20 18:44:49;;;;;;;7.00;3.80;;;;;;;21.99;52.74;99061.98;234175;1199;138151;-62
2021/08/20 18:49:52;;;;;;;7.00;4.10;;;;;;;21.94;53.06;99063.80;234087;1198;138091;-64
2021/08/20 18:54:55;;;;;;;12.60;4.20;;;;;;;21.88;53.21;99065.73;233962;1199;137722;-64
2021/08/20 18:59:58;;;;;;;7.00;4.50;;;;;;;21.86;53.36;99067.99;234083;1199;138444;-63
2021/08/20 19:05:02;;;;;;;13.80;4.60;;;;;;;21.84;53.56;99070.02;233992;1199;137709;-63
2021/08/20 19:10:07;;;;;;;11.30;4.80;;;;;;;21.83;53.84;99077.13;234180;1199;138777;-64
2021/08/20 19:15:12;;;;;;;11.40;5.10;;;;;;;21.82;53.98;99079.58;234031;1199;138433;-63
2021/08/20 19:20:16;;;;;;;;;;;;;;;21.81;54.01;99079.10;233989;1199;138706;-62
2021/08/20 19:25:21;;;;;;;9.40;4.80;;;;;;;21.78;54.51;99080.04;234068;1199;125156;-64
2021/08/20 19:30:24;;;;;;;9.40;4.80;;;;;;;21.75;54.55;99081.58;233986;1199;138074;-63
2021/08/20 19:35:27;;;;;;;11.00;4.90;;;;;;;21.72;54.69;99082.80;233994;1200;137924;-62
2021/08/20 19:40:30;;;;;;;12.50;5.10;;;;;;;21.71;54.92;99085.27;234102;1199;137832;-62
2021/08/20 19:45:34;;;;;;;12.40;5.20;;;;;;;21.70;54.88;99091.16;234023;1199;138309;-63
2021/08/20 19:50:37;;;;;;;8.30;5.40;;;;;;;21.67;55.11;99095.96;233999;1199;139325;-62
2021/08/20 19:55:40;;;;;;;11.60;5.60;;;;;;;21.63;55.20;99092.69;234042;1199;138352;-63
2021/08/20 20:00:43;;;;;;;12.70;5.80;;;;;;;21.60;55.22;99092.95;234038;1198;138624;-62
2021/08/20 20:05:47;;;;;;;12.60;5.80;;;;;;;21.59;55.24;99095.62;234076;1199;138483;-64
2021/08/20 20:10:50;;;;;;;11.70;5.80;;;;;;;21.57;55.31;99092.95;234097;1199;138581;-63
2021/08/20 20:15:53;;;;;;;10.30;6.60;;;;;;;21.55;55.46;99094.94;234176;1199;138534;-62
2021/08/20 20:20:56;;;;;;;12.10;6.30;;;;;;;21.52;55.63;99094.31;234084;1199;138250;-63
2021/08/20 20:26:00;;;;;;;13.00;6.00;;;;;;;21.52;55.78;99101.45;234050;1200;139742;-64
2021/08/20 20:31:03;;;;;;;13.70;6.60;;;;;;;21.52;55.91;99105.95;234056;1199;138915;-63
2021/08/20 20:36:09;;;;;;;15.90;9.80;;;;;;;21.55;56.21;99110.70;234074;1199;138653;-62
2021/08/20 20:41:12;;;;;;;11.10;6.30;;;;;;;21.57;56.29;99116.00;234093;1199;138260;-64
2021/08/20 20:46:16;;;;;;;12.40;7.00;;;;;;;21.58;56.37;99116.67;234169;1199;138572;-62
2021/08/20 20:51:20;;;;;;;11.70;7.40;;;;;;;21.59;56.45;99118.67;234086;1198;138134;-64
2021/08/20 20:56:23;;;;;;;15.00;8.20;;;;;;;21.56;56.50;99120.27;234172;1198;138004;-62
2021/08/20 21:01:26;;;;;;;14.50;7.90;;;;;;;21.50;56.68;99124.20;234156;1198;138226;-62
2021/08/20 21:06:29;;;;;;;13.60;8.20;;;;;;;21.40;56.85;99136.40;234089;1201;138452;-62
2021/08/20 21:11:32;;;;;;;20.90;9.30;;;;;;;21.32;57.08;99142.65;234021;1198;138194;-61
2021/08/20 21:16:37;;;;;;;22.60;8.40;;;;;;;21.23;57.27;99152.96;234136;1199;138291;-62
2021/08/20 21:21:41;;;;;;;17.40;8.70;;;;;;;21.15;57.37;99161.20;233997;1200;139159;-64
2021/08/20 21:26:44;;;;;;;14.30;6.90;;;;;;;21.10;57.47;99157.98;234108;1198;139211;-63
2021/08/20 21:31:47;;;;;;;13.40;6.90;;;;;;;21.13;57.66;99160.95;234079;1199;138426;-62
2021/08/20 21:36:52;;;;;;;14.80;7.40;;;;;;;21.11;57.65;99161.79;234065;1200;139173;-65
2021/08/20 21:41:55;;;;;;;13.50;6.60;;;;;;;21.09;57.74;99160.59;234044;1199;138844;-65
2021/08/20 21:46:59;;;;;;;13.20;6.20;;;;;;;21.04;57.77;99168.35;233739;1198;138015;-62
2021/08/20 21:52:03;;;;;;;8.30;5.70;;;;;;;20.97;57.88;99170.26;234134;1201;138436;-64
2021/08/20 21:57:06;;;;;;;47.70;40.40;;;;;;;20.90;58.11;99175.58;234092;1198;139122;-64
2021/08/20 22:02:13;;;;;;;9.90;6.80;;;;;;;20.83;58.08;99175.72;233950;1198;139478;-63
2021/08/20 22:08:50;;;;;;;6.40;4.40;;;;;;;20.76;58.25;99171.95;231370;1215;634581;-63
2021/08/20 22:13:54;;;;;;;8.80;4.00;;;;;;;20.69;58.29;99172.51;233531;1202;138051;-64
2021/08/20 22:18:57;;;;;;;5.70;3.80;;;;;;;20.68;58.32;99178.17;233649;1202;137828;-64
2021/08/20 22:24:00;;;;;;;6.10;3.40;;;;;;;20.65;58.45;99178.11;233624;1203;138477;-63
2021/08/20 22:29:07;;;;;;;6.20;3.60;;;;;;;20.62;58.49;99181.52;233564;1202;138093;-63
2021/08/20 22:34:10;;;;;;;4.70;3.50;;;;;;;20.54;58.41;99187.38;233939;1201;139000;-63
2021/08/20 22:39:15;;;;;;;14.20;9.60;;;;;;;20.43;58.43;99191.27;233624;1203;138072;-62
2021/08/20 22:44:18;;;;;;;7.40;3.30;;;;;;;20.33;58.49;99197.48;233695;1203;138143;-62
2021/08/20 22:49:21;;;;;;;6.20;3.60;;;;;;;20.26;58.65;99199.42;233625;1203;137320;-64
2021/08/20 22:54:24;;;;;;;8.00;3.20;;;;;;;20.20;58.66;99206.08;233500;1202;137584;-64
2021/08/20 22:59:27;;;;;;;5.10;3.20;;;;;;;20.13;58.77;99204.89;233553;1202;138215;-64
2021/08/20 23:04:32;;;;;;;3.90;2.90;;;;;;;20.08;58.75;99203.58;233904;1202;138629;-63
2021/08/20 23:09:35;;;;;;;6.40;3.20;;;;;;;20.10;58.97;99206.08;233633;1203;138286;-63
2021/08/20 23:14:40;;;;;;;4.80;3.30;;;;;;;20.16;59.14;99206.09;233476;1204;138225;-63
2021/08/20 23:19:43;;;;;;;4.60;3.40;;;;;;;20.20;59.29;99206.23;233562;1202;137967;-63
2021/08/20 23:24:46;;;;;;;6.30;3.60;;;;;;;20.20;59.33;99204.41;233777;1202;139348;-62